METAR Data
IDs: Format: Raw Decoded Include TAF

Data at: 1353 UTC 26 Feb 2021

ETHL 261320Z VRB03KT 9999 FEW040 SCT130 BKN220 15/02 Q1028 BLU+